createdAt,value
2019-05-10T00:00:54.143Z,78.85
2019-05-10T00:01:54.143Z,79.05
2019-05-10T00:02:54.128Z,78.44
2019-05-10T00:03:54.134Z,78.03
2019-05-10T00:04:54.098Z,78.13
2019-05-10T00:05:54.086Z,77.93
2019-05-10T00:06:54.098Z,77.52
2019-05-10T00:07:54.069Z,78.03
2019-05-10T00:08:54.078Z,78.13
2019-05-10T00:09:54.049Z,77.35
2019-05-10T00:10:54.030Z,77.97
2019-05-10T00:11:54.017Z,78.17
2019-05-10T00:12:54.008Z,78.68
2019-05-10T00:13:54.040Z,78.88
2019-05-10T00:14:53.990Z,77.83
2019-05-10T00:15:53.976Z,77.83
2019-05-10T00:16:53.987Z,77.25
2019-05-10T00:17:53.953Z,78.38
2019-05-10T00:18:53.946Z,78.07
2019-05-10T00:19:53.964Z,77.97
2019-05-10T00:20:53.924Z,78.48
2019-05-10T00:21:53.914Z,77.25
2019-05-10T00:22:53.958Z,77.25
2019-05-10T00:23:53.892Z,76.94
2019-05-10T00:25:04.034Z,76.84
2019-05-10T00:25:54.867Z,76.84
2019-05-10T00:26:53.851Z,76.94
2019-05-10T00:27:53.846Z,77.49
2019-05-10T00:28:53.872Z,77.08
2019-05-10T00:29:53.848Z,77.39
2019-05-10T00:30:53.810Z,78.20
2019-05-10T00:31:53.796Z,78.00
2019-05-10T00:32:53.794Z,78.52
2019-05-10T00:33:53.777Z,77.49
2019-05-10T00:34:53.792Z,76.88
2019-05-10T00:35:53.750Z,76.88
2019-05-10T00:36:53.774Z,77.59
2019-05-10T00:37:53.735Z,77.70
2019-05-10T00:38:53.718Z,78.31
2019-05-10T00:39:53.738Z,77.59
2019-05-10T00:40:53.696Z,77.59
2019-05-10T00:41:53.683Z,77.29
2019-05-10T00:42:53.672Z,77.59
2019-05-10T00:43:53.665Z,77.08
2019-05-10T00:44:53.679Z,77.49
2019-05-10T00:45:53.656Z,78.20
2019-05-10T00:46:53.628Z,77.49
2019-05-10T00:47:53.621Z,78.00
2019-05-10T00:48:53.604Z,77.19
2019-05-10T00:49:53.624Z,76.88
2019-05-10T00:50:53.582Z,77.19
2019-05-10T00:51:53.573Z,78.41
2019-05-10T00:52:53.589Z,78.20
2019-05-10T00:53:53.555Z,77.59
2019-05-10T00:54:53.567Z,76.67
2019-05-10T00:55:53.542Z,76.47
2019-05-10T00:56:53.520Z,76.57
2019-05-10T00:57:53.532Z,76.61
2019-05-10T00:58:53.492Z,76.61
2019-05-10T00:59:53.535Z,77.42
2019-05-10T01:00:53.535Z,76.91
2019-05-10T01:01:53.461Z,77.12
2019-05-10T01:02:53.453Z,77.70
2019-05-10T01:03:53.459Z,77.53
2019-05-10T01:04:53.428Z,76.50
2019-05-10T01:05:53.440Z,76.67
2019-05-10T01:06:56.416Z,76.57
2019-05-10T01:07:53.402Z,76.61
2019-05-10T01:08:53.388Z,77.01
2019-05-10T01:09:53.376Z,76.91
2019-05-10T01:10:53.391Z,76.81
2019-05-10T01:11:53.349Z,76.81
2019-05-10T01:12:53.342Z,76.91
2019-05-10T01:13:53.363Z,77.01
2019-05-10T01:14:53.318Z,76.91
2019-05-10T01:15:53.331Z,76.91
2019-05-10T01:16:53.298Z,77.01
2019-05-10T01:17:53.281Z,77.49
2019-05-10T01:18:53.277Z,77.49
2019-05-10T01:19:53.279Z,77.19
2019-05-10T01:20:53.274Z,77.29
2019-05-10T01:21:53.236Z,77.59
2019-05-10T01:22:53.250Z,76.91
2019-05-10T01:23:53.218Z,76.71
2019-05-10T01:24:53.202Z,76.61
2019-05-10T01:25:53.270Z,76.71
2019-05-10T01:26:53.245Z,77.01
2019-05-10T01:27:53.194Z,77.32
2019-05-10T01:28:53.162Z,77.22
2019-05-10T01:29:53.156Z,77.73
2019-05-10T01:30:53.167Z,78.45
2019-05-10T01:31:53.125Z,78.75
2019-05-10T01:32:53.181Z,79.06
2019-05-10T01:33:53.103Z,78.96
2019-05-10T01:34:53.148Z,78.96
2019-05-10T01:35:53.107Z,79.57
2019-05-10T01:36:53.079Z,79.88
2019-05-10T01:37:53.061Z,78.72
2019-05-10T01:38:53.048Z,79.57
2019-05-10T01:39:53.040Z,80.15
2019-05-10T01:40:53.050Z,79.53
2019-05-10T01:41:53.040Z,79.16
2019-05-10T01:42:53.023Z,78.96
2019-05-10T01:43:52.994Z,78.55
2019-05-10T01:44:52.980Z,78.14
2019-05-10T01:45:53.032Z,78.04
2019-05-10T01:46:52.962Z,78.79
2019-05-10T01:47:52.954Z,79.37
2019-05-10T01:48:52.945Z,78.38
2019-05-10T01:49:52.927Z,78.08
2019-05-10T01:50:52.942Z,78.28
2019-05-10T01:51:52.902Z,78.17
2019-05-10T01:52:52.898Z,77.76
2019-05-10T01:53:52.881Z,78.89
2019-05-10T01:54:52.870Z,79.00
2019-05-10T01:55:53.139Z,79.00
2019-05-10T01:56:52.877Z,79.20
2019-05-10T01:57:52.843Z,79.82
2019-05-10T01:58:52.823Z,80.12
2019-05-10T01:59:52.819Z,80.74
2019-05-10T02:00:52.807Z,80.83
2019-05-10T02:01:52.816Z,80.83
2019-05-10T02:02:52.786Z,79.91
2019-05-10T02:03:52.770Z,79.71
2019-05-10T02:04:52.761Z,79.00
2019-05-10T02:05:52.749Z,79.20
2019-05-10T02:06:52.774Z,79.82
2019-05-10T02:07:52.729Z,80.02
2019-05-10T02:08:52.712Z,79.00
2019-05-10T02:09:52.704Z,79.00
2019-05-10T02:10:52.696Z,78.59
2019-05-10T02:11:52.724Z,79.41
2019-05-10T02:12:52.680Z,79.82
2019-05-10T02:13:52.662Z,79.30
2019-05-10T02:14:52.671Z,77.83
2019-05-10T02:15:52.633Z,77.63
2019-05-10T02:16:52.652Z,79.20
2019-05-10T02:17:52.673Z,79.10
2019-05-10T02:18:52.606Z,78.49
2019-05-10T02:19:52.591Z,78.14
2019-05-10T02:20:52.598Z,78.96
2019-05-10T02:21:52.593Z,78.24
2019-05-10T02:22:52.556Z,77.53
2019-05-10T02:23:52.543Z,78.04
2019-05-10T02:24:52.533Z,76.84
2019-05-10T02:26:08.310Z,76.91
2019-05-10T02:26:53.561Z,76.84
2019-05-10T02:27:52.501Z,76.34
2019-05-10T02:28:52.495Z,77.01
2019-05-10T02:29:52.485Z,76.95
2019-05-10T02:30:52.479Z,77.67
2019-05-10T02:31:52.487Z,76.84
2019-05-10T02:32:52.446Z,76.84
2019-05-10T02:33:52.435Z,77.76
2019-05-10T02:34:52.423Z,78.17
2019-05-10T02:35:52.452Z,77.67
2019-05-10T02:36:52.425Z,76.75
2019-05-10T02:37:52.389Z,77.36
2019-05-10T02:38:52.377Z,78.49
2019-05-10T02:39:52.382Z,79.10
2019-05-10T02:40:52.367Z,79.20
2019-05-10T02:41:52.368Z,78.79
2019-05-10T02:42:52.338Z,77.67
2019-05-10T02:43:52.324Z,77.46
2019-05-10T02:44:52.330Z,77.67
2019-05-10T02:45:52.325Z,77.76
2019-05-10T02:46:52.323Z,78.08
2019-05-10T02:47:52.277Z,78.38
2019-05-10T02:48:52.274Z,78.17
2019-05-10T02:49:52.255Z,78.17
2019-05-10T02:50:52.257Z,78.42
2019-05-10T02:51:52.235Z,78.31
2019-05-10T02:52:52.293Z,78.28
2019-05-10T02:53:52.212Z,78.38
2019-05-10T02:54:52.201Z,78.21
2019-05-10T02:55:52.192Z,78.42
2019-05-10T02:56:52.208Z,78.49
2019-05-10T02:57:52.195Z,78.59
2019-05-10T02:58:52.159Z,78.93
2019-05-10T02:59:52.153Z,79.03
2019-05-10T03:00:52.133Z,78.63
2019-05-10T03:01:52.125Z,79.24
2019-05-10T03:02:52.140Z,79.03
2019-05-10T03:03:52.105Z,78.83
2019-05-10T03:04:52.093Z,78.93
2019-05-10T03:05:52.079Z,79.13
2019-05-10T03:06:52.097Z,78.72
2019-05-10T03:07:52.083Z,78.93
2019-05-10T03:08:52.056Z,79.03
2019-05-10T03:09:52.042Z,79.03
2019-05-10T03:10:52.032Z,79.44
2019-05-10T03:11:52.007Z,79.50
2019-05-10T03:12:52.027Z,79.44
2019-05-10T03:13:51.993Z,79.13
2019-05-10T03:14:51.980Z,78.83
2019-05-10T03:15:51.989Z,79.20
2019-05-10T03:16:52.115Z,79.13
2019-05-10T03:17:51.969Z,79.61
2019-05-10T03:18:51.940Z,79.50
2019-05-10T03:19:51.934Z,78.08
2019-05-10T03:20:51.913Z,78.17
2019-05-10T03:21:51.899Z,78.38
2019-05-10T03:22:51.914Z,78.17
2019-05-10T03:23:51.875Z,77.67
2019-05-10T03:24:51.870Z,78.28
2019-05-10T03:25:51.892Z,77.46
2019-05-10T03:26:51.934Z,78.17
2019-05-10T03:27:51.870Z,78.08
2019-05-10T03:28:51.831Z,78.01
2019-05-10T03:29:51.813Z,77.56
2019-05-10T03:30:51.799Z,77.76
2019-05-10T03:31:51.793Z,77.29
2019-05-10T03:32:51.809Z,76.95
2019-05-10T03:33:56.366Z,76.75
2019-05-10T03:34:52.761Z,76.95
2019-05-10T03:35:51.744Z,76.95
2019-05-10T03:36:51.733Z,77.36
2019-05-10T03:37:51.762Z,77.76
2019-05-10T03:38:51.726Z,78.28
2019-05-10T03:39:51.697Z,78.08
2019-05-10T03:40:51.687Z,77.67
2019-05-10T03:41:51.681Z,76.84
2019-05-10T03:42:51.787Z,77.26
2019-05-10T03:43:51.677Z,76.95
2019-05-10T03:44:51.645Z,77.46
2019-05-10T03:45:51.674Z,78.08
2019-05-10T03:46:51.625Z,78.17
2019-05-10T03:47:51.612Z,77.46
2019-05-10T03:48:51.644Z,77.67
2019-05-10T03:49:51.588Z,77.97
2019-05-10T03:50:51.582Z,77.91
2019-05-10T03:51:51.574Z,77.76
2019-05-10T03:52:52.446Z,78.38
2019-05-10T03:53:51.569Z,78.89
2019-05-10T03:54:51.537Z,78.38
2019-05-10T03:55:51.550Z,78.38
2019-05-10T03:57:11.086Z,77.46
2019-05-10T03:57:52.498Z,78.08
2019-05-10T03:58:51.514Z,77.97
2019-05-10T03:59:51.479Z,78.28
2019-05-10T04:00:51.481Z,78.08
2019-05-10T04:01:51.453Z,78.08
2019-05-10T04:02:51.461Z,78.28
2019-05-10T04:03:51.456Z,78.89
2019-05-10T04:04:51.418Z,79.10
2019-05-10T04:05:51.436Z,78.17
2019-05-10T04:06:51.409Z,78.28
2019-05-10T04:07:51.392Z,78.38
2019-05-10T04:08:51.422Z,78.08
2019-05-10T04:09:51.366Z,78.04
2019-05-10T04:10:51.360Z,77.97
2019-05-10T04:11:51.343Z,77.97
2019-05-10T04:12:51.348Z,78.38
2019-05-10T04:13:51.356Z,77.94
2019-05-10T04:14:51.307Z,78.14
2019-05-10T04:15:51.293Z,77.63
2019-05-10T04:16:51.340Z,77.53
2019-05-10T04:17:51.282Z,77.42
2019-05-10T04:18:51.292Z,77.73
2019-05-10T04:19:51.283Z,78.34
2019-05-10T04:20:51.249Z,77.12
2019-05-10T04:21:51.240Z,77.53
2019-05-10T04:22:51.241Z,78.14
2019-05-10T04:23:51.232Z,78.55
2019-05-10T04:24:51.206Z,77.42
2019-05-10T04:25:51.184Z,77.42
2019-05-10T04:26:51.175Z,77.73
2019-05-10T04:27:51.161Z,77.32
2019-05-10T04:28:51.155Z,77.53
2019-05-10T04:29:51.167Z,78.34
2019-05-10T04:30:51.135Z,78.75
2019-05-10T04:31:51.115Z,78.04
2019-05-10T04:32:51.133Z,78.24
2019-05-10T04:33:51.102Z,78.14
2019-05-10T04:34:51.120Z,78.75
2019-05-10T04:35:51.073Z,79.16
2019-05-10T04:36:51.067Z,79.16
2019-05-10T04:37:51.053Z,79.06
2019-05-10T04:38:51.051Z,79.06
2019-05-10T04:39:51.070Z,79.16
2019-05-10T04:40:51.021Z,78.96
2019-05-10T04:41:51.004Z,79.27
2019-05-10T04:42:50.996Z,79.16
2019-05-10T04:43:50.984Z,79.06
2019-05-10T04:44:53.375Z,78.55
2019-05-10T04:45:50.970Z,79.06
2019-05-10T04:46:50.952Z,78.86
2019-05-10T04:47:50.939Z,78.86
2019-05-10T04:48:50.933Z,78.75
2019-05-10T04:49:50.945Z,78.86
2019-05-10T04:50:50.919Z,78.96
2019-05-10T04:51:50.895Z,79.06
2019-05-10T04:52:50.883Z,77.94
2019-05-10T04:53:50.876Z,78.14
2019-05-10T04:54:50.915Z,77.53
2019-05-10T04:55:50.851Z,78.04
2019-05-10T04:56:50.843Z,78.24
2019-05-10T04:57:51.459Z,78.34
2019-05-10T04:58:50.833Z,78.04
2019-05-10T04:59:50.839Z,77.12
2019-05-10T05:00:50.798Z,77.12
2019-05-10T05:01:50.807Z,77.12
2019-05-10T05:02:50.771Z,76.91
2019-05-10T05:03:50.758Z,76.88
2019-05-10T05:04:50.774Z,76.47
2019-05-10T05:05:50.750Z,76.67
2019-05-10T05:06:50.726Z,76.88
2019-05-10T05:07:50.714Z,76.78
2019-05-10T05:08:50.739Z,76.67
2019-05-10T05:09:50.720Z,76.57
2019-05-10T05:10:50.682Z,76.26
2019-05-10T05:11:50.671Z,76.67
2019-05-10T05:12:50.662Z,76.57
2019-05-10T05:13:50.647Z,76.26
2019-05-10T05:14:50.665Z,76.23
2019-05-10T05:15:50.630Z,76.67
2019-05-10T05:16:50.613Z,76.67
2019-05-10T05:17:50.604Z,76.88
2019-05-10T05:18:50.592Z,76.47
2019-05-10T05:19:50.581Z,76.67
2019-05-10T05:20:50.595Z,76.53
2019-05-10T05:21:50.586Z,77.45
2019-05-10T05:22:50.548Z,76.64
2019-05-10T05:23:50.544Z,77.04
2019-05-10T05:24:55.240Z,76.53
2019-05-10T05:25:51.548Z,76.53
2019-05-10T05:26:50.502Z,76.64
2019-05-10T05:28:06.614Z,76.53
2019-05-10T05:28:51.477Z,76.23
2019-05-10T05:29:50.473Z,76.67
2019-05-10T05:30:50.516Z,76.64
2019-05-10T05:31:53.973Z,76.74
2019-05-10T05:32:51.438Z,76.64
2019-05-10T05:33:50.433Z,76.74
2019-05-10T05:34:50.412Z,76.84
2019-05-10T05:35:50.435Z,76.43
2019-05-10T05:36:50.392Z,75.71
2019-05-10T05:37:50.380Z,76.53
2019-05-10T05:38:50.374Z,75.31
2019-05-10T05:39:50.367Z,75.31
2019-05-10T05:40:50.374Z,75.41
2019-05-10T05:41:52.198Z,75.62
2019-05-10T05:42:50.326Z,75.51
2019-05-10T05:43:50.311Z,74.69
2019-05-10T05:44:50.301Z,75.00
2019-05-10T05:45:50.320Z,74.69
2019-05-10T05:46:50.283Z,74.59
2019-05-10T05:47:50.331Z,75.10
2019-05-10T05:48:51.537Z,74.90
2019-05-10T05:49:50.250Z,74.49
2019-05-10T05:50:50.263Z,74.69
2019-05-10T05:51:50.222Z,74.90
2019-05-10T05:52:50.212Z,75.00
2019-05-10T05:53:50.260Z,75.37
2019-05-10T05:54:52.895Z,74.90
2019-05-10T05:55:51.203Z,74.56
2019-05-10T05:56:52.702Z,74.56
2019-05-10T05:57:50.164Z,74.69
2019-05-10T05:58:50.144Z,74.66
2019-05-10T05:59:50.152Z,74.59
2019-05-10T06:00:50.149Z,74.69
2019-05-10T06:01:50.111Z,75.58
2019-05-10T06:02:50.104Z,75.07
2019-05-10T06:03:50.098Z,74.66
2019-05-10T06:04:50.125Z,74.76
2019-05-10T06:05:50.094Z,74.97
2019-05-10T06:06:53.655Z,74.97
2019-05-10T06:07:52.248Z,74.76
2019-05-10T06:08:54.464Z,74.66
2019-05-10T06:09:51.034Z,74.97
2019-05-10T06:10:57.550Z,74.97
2019-05-10T06:11:51.029Z,74.76
2019-05-10T06:12:52.710Z,74.56
2019-05-10T06:13:49.983Z,74.76
2019-05-10T06:14:52.214Z,74.46
2019-05-10T06:15:49.958Z,74.66
2019-05-10T06:16:51.529Z,74.66
2019-05-10T06:17:56.651Z,74.97
2019-05-10T06:18:50.918Z,74.66
2019-05-10T06:19:49.912Z,75.07
2019-05-10T06:20:49.906Z,75.07
2019-05-10T06:21:49.915Z,75.37
2019-05-10T06:23:05.652Z,75.27
2019-05-10T06:23:50.869Z,75.62
2019-05-10T06:24:52.457Z,75.41
2019-05-10T06:25:49.898Z,75.17
2019-05-10T06:26:49.859Z,75.31
2019-05-10T06:27:49.820Z,75.58
2019-05-10T06:29:01.338Z,75.48
2019-05-10T06:29:50.812Z,75.68
2019-05-10T06:30:49.788Z,76.70
2019-05-10T06:31:49.817Z,76.50
2019-05-10T06:32:53.460Z,76.84
2019-05-10T06:33:50.752Z,76.81
2019-05-10T06:34:49.777Z,77.52
2019-05-10T06:35:49.739Z,76.60
2019-05-10T06:36:49.761Z,76.70
2019-05-10T06:37:49.722Z,76.81
2019-05-10T06:38:49.697Z,76.29
2019-05-10T06:39:49.694Z,76.84
2019-05-10T06:40:49.718Z,76.90
2019-05-10T06:41:55.601Z,77.31
2019-05-10T06:42:50.657Z,77.42
2019-05-10T06:43:51.363Z,76.81
2019-05-10T06:44:49.632Z,76.81
2019-05-10T06:45:52.538Z,76.40
2019-05-10T06:46:49.639Z,76.74
2019-05-10T06:47:52.907Z,76.94
2019-05-10T06:48:49.590Z,77.62
2019-05-10T06:49:52.125Z,76.81
2019-05-10T06:50:49.582Z,76.94
2019-05-10T06:51:50.975Z,76.70
2019-05-10T06:52:52.022Z,76.40
2019-05-10T06:53:53.597Z,76.90
2019-05-10T06:54:49.575Z,78.13
2019-05-10T06:55:49.512Z,78.95
2019-05-10T06:56:49.506Z,78.44
2019-05-10T06:57:57.148Z,79.39
2019-05-10T06:58:50.480Z,79.46
2019-05-10T06:59:49.579Z,80.62
2019-05-10T07:00:49.463Z,80.73
2019-05-10T07:01:52.011Z,81.95
2019-05-10T07:02:49.464Z,81.54
2019-05-10T07:03:49.441Z,81.88
2019-05-10T07:04:51.054Z,81.58
2019-05-10T07:05:49.415Z,83.22
2019-05-10T07:06:49.385Z,82.91
2019-05-10T07:07:49.409Z,83.01
2019-05-10T07:08:51.520Z,83.52
2019-05-10T07:10:17.707Z,82.60
2019-05-10T07:10:50.339Z,82.50
2019-05-10T07:11:49.349Z,81.17
2019-05-10T07:12:49.362Z,81.58
2019-05-10T07:13:52.816Z,81.58
2019-05-10T07:14:49.298Z,81.58
2019-05-10T07:15:49.299Z,82.91
2019-05-10T07:16:49.287Z,82.91
2019-05-10T07:17:49.290Z,83.22
2019-05-10T07:18:49.255Z,83.22
2019-05-10T07:19:53.440Z,83.01
2019-05-10T07:20:50.241Z,82.36
2019-05-10T07:21:51.232Z,81.54
2019-05-10T07:22:49.271Z,81.74
2019-05-10T07:23:49.200Z,81.85
2019-05-10T07:24:49.190Z,81.13
2019-05-10T07:25:49.175Z,81.54
2019-05-10T07:26:49.163Z,81.74
2019-05-10T07:27:50.419Z,81.74
2019-05-10T07:28:51.953Z,82.36
2019-05-10T07:29:50.132Z,81.85
2019-05-10T07:30:49.117Z,81.85
2019-05-10T07:31:49.111Z,81.81
2019-05-10T07:32:49.124Z,81.71
2019-05-10T07:33:49.088Z,81.44
2019-05-10T07:34:58.341Z,79.87
2019-05-10T07:35:50.117Z,79.77
2019-05-10T07:36:49.051Z,80.32
2019-05-10T07:37:51.894Z,79.25
2019-05-10T07:38:49.037Z,79.97
2019-05-10T07:39:49.026Z,80.69
2019-05-10T07:40:49.006Z,80.58
2019-05-10T07:41:49.001Z,80.79
2019-05-10T07:42:48.992Z,80.83
2019-05-10T07:43:49.069Z,80.73
2019-05-10T07:44:48.959Z,81.13
2019-05-10T07:45:48.967Z,81.03
2019-05-10T07:46:54.317Z,82.36
2019-05-10T07:47:49.944Z,82.87
2019-05-10T07:48:53.251Z,82.81
2019-05-10T07:49:48.939Z,83.01
2019-05-10T07:50:51.734Z,83.73
2019-05-10T07:51:48.886Z,84.24
2019-05-10T07:52:48.875Z,83.73
2019-05-10T07:53:48.894Z,83.52
2019-05-10T07:54:48.864Z,83.22
2019-05-10T07:55:48.850Z,82.91
2019-05-10T07:56:48.828Z,82.70
2019-05-10T07:57:48.827Z,83.32
2019-05-10T07:58:48.835Z,83.22
2019-05-10T07:59:51.073Z,83.22
2019-05-10T08:00:48.789Z,83.38
2019-05-10T08:01:49.298Z,82.87
2019-05-10T08:02:52.748Z,83.18
2019-05-10T08:03:52.430Z,83.07
2019-05-10T08:04:51.357Z,82.46
2019-05-10T08:05:55.153Z,82.97
2019-05-10T08:06:51.956Z,81.95
2019-05-10T08:07:49.496Z,83.18
2019-05-10T08:08:49.687Z,83.07
2019-05-10T08:09:48.847Z,82.26
2019-05-10T08:10:48.884Z,81.54
2019-05-10T08:11:48.686Z,81.24
2019-05-10T08:12:48.649Z,80.93
2019-05-10T08:13:48.705Z,81.13
2019-05-10T08:14:50.147Z,81.81
2019-05-10T08:15:49.086Z,82.01
2019-05-10T08:16:49.873Z,82.42
2019-05-10T08:17:50.976Z,83.34
2019-05-10T08:18:49.769Z,82.53
2019-05-10T08:19:48.579Z,83.04
2019-05-10T08:20:53.896Z,83.04
2019-05-10T08:21:56.560Z,82.53
2019-05-10T08:22:49.546Z,83.34
2019-05-10T08:23:48.587Z,82.32
2019-05-10T08:24:52.763Z,81.91
2019-05-10T08:25:49.509Z,82.53
2019-05-10T08:26:48.492Z,83.24
2019-05-10T08:27:51.184Z,81.81
2019-05-10T08:28:49.508Z,81.51
2019-05-10T08:29:52.863Z,82.22
2019-05-10T08:30:53.625Z,82.93
2019-05-10T08:31:53.629Z,83.04
2019-05-10T08:32:49.441Z,81.81
2019-05-10T08:33:56.343Z,81.91
2019-05-10T08:34:53.022Z,81.30
2019-05-10T08:35:52.365Z,81.87
2019-05-10T08:36:49.379Z,82.28
2019-05-10T08:37:48.383Z,81.37
2019-05-10T08:38:58.943Z,80.75
2019-05-10T08:39:55.342Z,81.77
2019-05-10T08:40:49.358Z,81.77
2019-05-10T08:42:01.254Z,81.26
2019-05-10T08:43:02.833Z,81.26
2019-05-10T08:43:49.344Z,81.67
2019-05-10T08:44:54.159Z,82.08
2019-05-10T08:45:52.207Z,81.67
2019-05-10T08:46:48.274Z,80.85
2019-05-10T08:47:52.920Z,80.71
2019-05-10T08:48:53.088Z,80.82
2019-05-10T08:50:06.258Z,80.61
2019-05-10T08:50:54.302Z,79.80
2019-05-10T08:51:50.057Z,80.71
2019-05-10T08:52:48.208Z,80.61
2019-05-10T08:53:56.142Z,80.41
2019-05-10T08:54:49.180Z,80.10
2019-05-10T08:55:48.175Z,79.49
2019-05-10T08:56:52.995Z,79.80
2019-05-10T08:57:49.422Z,79.49
2019-05-10T08:58:48.139Z,79.04
2019-05-10T08:59:48.147Z,78.94
2019-05-10T09:00:54.670Z,78.23
2019-05-10T09:01:50.848Z,79.35
2019-05-10T09:02:48.091Z,79.52
2019-05-10T09:03:55.112Z,79.25
2019-05-10T09:04:50.310Z,79.32
2019-05-10T09:05:48.056Z,79.52
2019-05-10T09:06:55.981Z,79.21
2019-05-10T09:07:49.042Z,79.11
2019-05-10T09:08:52.981Z,79.32
2019-05-10T09:09:50.308Z,79.72
2019-05-10T09:10:48.001Z,80.09
2019-05-10T09:11:47.994Z,79.93
2019-05-10T09:12:57.995Z,79.68
2019-05-10T09:13:48.991Z,80.40
2019-05-10T09:14:48.819Z,80.60
2019-05-10T09:15:52.319Z,80.50
2019-05-10T09:16:57.569Z,79.34
2019-05-10T09:17:48.924Z,79.24
2019-05-10T09:18:51.183Z,80.46
2019-05-10T09:19:48.938Z,80.05
2019-05-10T09:20:47.892Z,79.24
2019-05-10T09:21:49.819Z,79.61
2019-05-10T09:22:47.873Z,77.71
2019-05-10T09:23:52.766Z,77.81
2019-05-10T09:24:50.004Z,76.28
2019-05-10T09:25:47.834Z,75.37
2019-05-10T09:26:54.840Z,76.28
2019-05-10T09:27:48.867Z,76.76
2019-05-10T09:28:55.510Z,77.37
2019-05-10T09:29:48.817Z,76.35
2019-05-10T09:30:59.349Z,73.43
2019-05-10T09:31:50.622Z,76.45
2019-05-10T09:32:47.756Z,73.94
2019-05-10T09:33:49.538Z,74.76
2019-05-10T09:34:47.757Z,73.74
2019-05-10T09:35:52.391Z,74.65
2019-05-10T09:36:48.708Z,74.04
2019-05-10T09:37:53.020Z,74.15
2019-05-10T09:38:48.685Z,72.92
2019-05-10T09:39:52.292Z,73.64
2019-05-10T09:40:52.889Z,73.13
2019-05-10T09:41:48.656Z,71.80
2019-05-10T09:42:47.646Z,71.91
2019-05-10T09:43:48.945Z,71.19
2019-05-10T09:44:47.661Z,72.41
2019-05-10T09:45:47.639Z,73.02
2019-05-10T09:46:47.611Z,71.80
2019-05-10T09:47:47.596Z,71.50
2019-05-10T09:48:47.577Z,71.19
2019-05-10T09:49:54.134Z,71.30
2019-05-10T09:50:48.571Z,71.70
2019-05-10T09:51:47.552Z,69.97
2019-05-10T09:52:47.535Z,70.95
2019-05-10T09:53:48.549Z,71.91
2019-05-10T09:54:49.552Z,72.89
2019-05-10T09:55:55.256Z,73.13
2019-05-10T09:56:52.088Z,71.87
2019-05-10T09:57:48.071Z,71.60
2019-05-10T09:58:48.290Z,72.89
2019-05-10T09:59:47.477Z,72.01
2019-05-10T10:00:48.531Z,71.67
2019-05-10T10:01:48.458Z,71.36
2019-05-10T10:02:55.880Z,71.87
2019-05-10T10:03:48.415Z,71.87
2019-05-10T10:04:47.477Z,72.38
2019-05-10T10:05:48.308Z,71.43
2019-05-10T10:06:52.473Z,72.04
2019-05-10T10:07:48.387Z,71.84
2019-05-10T10:08:51.225Z,70.72
2019-05-10T10:09:47.904Z,71.73
2019-05-10T10:10:47.732Z,72.04
2019-05-10T10:11:57.366Z,71.91
2019-05-10T10:12:48.307Z,72.31
2019-05-10T10:13:50.241Z,71.57
2019-05-10T10:14:48.323Z,70.14
2019-05-10T10:15:52.085Z,69.74
2019-05-10T10:16:57.858Z,70.86
2019-05-10T10:17:48.251Z,70.55
2019-05-10T10:18:47.773Z,70.45
2019-05-10T10:19:48.042Z,70.65
2019-05-10T10:20:48.091Z,69.74
2019-05-10T10:21:47.661Z,69.74
2019-05-10T10:22:52.626Z,69.64
2019-05-10T10:23:48.192Z,69.94
2019-05-10T10:24:49.087Z,70.82
2019-05-10T10:25:48.530Z,70.82
2019-05-10T10:26:48.194Z,70.28
2019-05-10T10:27:48.010Z,70.35
2019-05-10T10:28:49.519Z,68.01
2019-05-10T10:29:48.127Z,68.93
2019-05-10T10:30:52.729Z,68.90
2019-05-10T10:31:55.272Z,68.70
2019-05-10T10:32:48.099Z,68.39
2019-05-10T10:33:57.388Z,66.77
2019-05-10T10:34:52.479Z,66.56
2019-05-10T10:35:48.286Z,68.05
2019-05-10T10:36:47.488Z,65.92
2019-05-10T10:37:47.632Z,66.43
2019-05-10T10:38:49.483Z,65.79
2019-05-10T10:39:47.671Z,66.40
2019-05-10T10:40:46.994Z,65.86
2019-05-10T10:41:48.522Z,65.45
2019-05-10T10:42:47.388Z,66.37
2019-05-10T10:43:48.416Z,66.84
2019-05-10T10:44:48.287Z,66.13
2019-05-10T10:45:46.940Z,65.76
2019-05-10T10:46:47.967Z,65.89
2019-05-10T10:47:47.262Z,65.69
2019-05-10T10:48:49.252Z,67.00
2019-05-10T10:49:46.894Z,67.21
2019-05-10T10:50:53.855Z,66.19
2019-05-10T10:51:47.898Z,64.70
2019-05-10T10:52:46.863Z,63.69
2019-05-10T10:53:47.142Z,65.92
2019-05-10T10:54:47.930Z,65.72
2019-05-10T10:55:54.126Z,66.74
2019-05-10T10:56:48.307Z,65.65
2019-05-10T10:57:48.144Z,65.52
2019-05-10T10:58:49.704Z,66.23
2019-05-10T10:59:47.485Z,66.60
2019-05-10T11:00:48.174Z,65.89
2019-05-10T11:01:52.041Z,65.22
2019-05-10T11:02:51.976Z,63.60
2019-05-10T11:03:48.846Z,63.90
2019-05-10T11:04:48.837Z,63.70
2019-05-10T11:05:46.769Z,63.81
2019-05-10T11:06:46.709Z,61.65
2019-05-10T11:07:47.804Z,61.24
2019-05-10T11:08:46.686Z,62.66
2019-05-10T11:09:46.676Z,62.56
2019-05-10T11:10:46.662Z,62.79
2019-05-10T11:11:46.650Z,61.78
2019-05-10T11:12:46.666Z,62.79
2019-05-10T11:13:57.306Z,63.20
2019-05-10T11:14:48.548Z,62.92
2019-05-10T11:15:46.613Z,62.82
2019-05-10T11:16:51.756Z,63.43
2019-05-10T11:17:47.607Z,65.08
2019-05-10T11:18:46.586Z,65.89
2019-05-10T11:19:46.558Z,65.92
2019-05-10T11:20:49.518Z,66.13
2019-05-10T11:21:47.540Z,66.33
2019-05-10T11:22:49.610Z,66.83
2019-05-10T11:23:47.523Z,66.56
2019-05-10T11:24:51.808Z,67.27
2019-05-10T11:25:54.786Z,68.39
2019-05-10T11:26:47.482Z,68.79
2019-05-10T11:27:47.612Z,67.95
2019-05-10T11:28:47.457Z,68.35
2019-05-10T11:29:46.452Z,68.73
2019-05-10T11:30:46.436Z,68.16
2019-05-10T11:31:50.188Z,66.44
2019-05-10T11:32:47.437Z,66.13
2019-05-10T11:33:47.395Z,65.66
2019-05-10T11:34:47.391Z,66.27
2019-05-10T11:35:46.382Z,65.56
2019-05-10T11:36:48.317Z,65.05
2019-05-10T11:37:46.389Z,65.53
2019-05-10T11:38:46.979Z,66.24
2019-05-10T11:39:47.337Z,65.02
2019-05-10T11:40:46.376Z,65.19
2019-05-10T11:41:46.316Z,64.93
2019-05-10T11:42:47.666Z,64.79
2019-05-10T11:43:46.298Z,61.73
2019-05-10T11:44:50.035Z,61.23
2019-05-10T11:45:47.272Z,61.33
2019-05-10T11:46:46.269Z,61.51
2019-05-10T11:47:48.184Z,62.31
2019-05-10T11:48:47.245Z,62.68
2019-05-10T11:49:46.228Z,61.24
2019-05-10T11:50:46.228Z,60.84
2019-05-10T11:52:47.216Z,60.88
2019-05-10T11:54:47.171Z,59.70
2019-05-10T11:55:46.168Z,61.17
2019-05-10T11:56:46.150Z,60.80
2019-05-10T11:58:00.761Z,62.11
2019-05-10T11:58:55.036Z,62.85
2019-05-10T11:59:04.694Z,60.51
2019-05-10T11:59:04.814Z,59.77
2019-05-10T11:59:47.129Z,62.37
2019-05-10T12:00:46.110Z,63.28
2019-05-10T12:01:56.866Z,62.85
2019-05-10T12:03:06.700Z,63.45
2019-05-10T12:03:47.097Z,62.44
2019-05-10T12:04:46.059Z,63.58
2019-05-10T12:05:56.473Z,63.48
2019-05-10T12:06:51.423Z,63.21
2019-05-10T12:07:46.279Z,63.64
2019-05-10T12:08:46.012Z,63.64
2019-05-10T12:09:53.279Z,63.51
2019-05-10T12:10:53.039Z,63.54
2019-05-10T12:11:51.665Z,64.15
2019-05-10T12:13:46.962Z,65.09
2019-05-10T12:14:46.741Z,63.81
2019-05-10T12:15:45.936Z,64.41
2019-05-10T12:16:45.924Z,64.61
2019-05-10T12:17:47.609Z,63.81
2019-05-10T12:19:02.274Z,65.36
2019-05-10T12:19:50.497Z,65.96
2019-05-10T12:21:00.194Z,65.76
2019-05-10T12:21:46.876Z,65.62
2019-05-10T12:22:47.496Z,65.70
2019-05-10T12:23:50.853Z,66.00
2019-05-10T12:25:14.104Z,65.09
2019-05-10T12:26:18.179Z,65.29
2019-05-10T12:26:27.645Z,64.79
2019-05-10T12:27:49.202Z,65.77
2019-05-10T12:28:46.789Z,64.96
2019-05-10T12:29:46.483Z,64.99
2019-05-10T12:30:46.768Z,65.29
2019-05-10T12:31:47.462Z,65.39
2019-05-10T12:32:56.320Z,64.41
2019-05-10T12:33:46.735Z,65.62
2019-05-10T12:34:50.395Z,66.54
2019-05-10T12:35:47.467Z,66.33
2019-05-10T12:36:45.708Z,66.33
2019-05-10T12:37:51.423Z,65.93
2019-05-10T12:38:46.677Z,66.24
2019-05-10T12:39:45.725Z,66.44
2019-05-10T12:40:46.005Z,64.82
2019-05-10T12:41:49.637Z,64.58
2019-05-10T12:42:47.123Z,63.13
2019-05-10T12:43:48.374Z,62.60
2019-05-10T12:44:48.032Z,63.58
2019-05-10T12:45:45.606Z,63.68
2019-05-10T12:46:45.592Z,62.40
2019-05-10T12:47:45.606Z,62.98
2019-05-10T12:48:45.613Z,62.47
2019-05-10T12:49:45.573Z,62.04
2019-05-10T12:50:45.545Z,61.53
2019-05-10T12:51:45.541Z,60.72
2019-05-10T12:52:53.684Z,60.32
2019-05-10T12:53:49.214Z,59.69